Time;durP1;ratioP1;P1;durP2;ratioP2;P2;SDS_P1;SDS_P2;PMS_P1;PMS_P2;Temp;Humidity;BMP_temperature;BMP_pressure;BME280_temperature;BME280_humidity;BME280_pressure;Samples;Min_cycle;Max_cycle;Signal;HPM_P1;HPM_P2
2023/09/16 00:02:09;;;;;;;3.13;2.80;;;17.00;99.90;;;;;;5042238;28;20203;-67
2023/09/16 00:04:35;;;;;;;3.93;3.03;;;16.70;99.90;;;;;;5038939;28;20245;-62
2023/09/16 00:07:00;;;;;;;3.67;3.10;;;16.90;99.90;;;;;;5039847;28;20210;-69
2023/09/16 00:09:26;;;;;;;3.83;2.90;;;16.90;99.90;;;;;;5037703;28;20205;-69
2023/09/16 00:11:51;;;;;;;4.00;2.80;;;16.90;99.90;;;;;;5039210;28;20668;-68
2023/09/16 00:14:21;;;;;;;3.70;2.83;;;16.90;99.90;;;;;;5022221;28;20202;-65
2023/09/16 00:16:46;;;;;;;2.47;2.27;;;16.90;99.90;;;;;;5042357;28;20756;-64
2023/09/16 00:19:12;;;;;;;3.50;2.90;;;16.90;99.90;;;;;;5037043;28;20206;-67
2023/09/16 00:21:39;;;;;;;3.43;3.03;;;16.70;99.90;;;;;;5040082;28;20198;-67
2023/09/16 00:24:05;;;;;;;3.13;2.83;;;16.60;99.90;;;;;;5042681;28;20706;-68
2023/09/16 00:26:34;;;;;;;3.20;2.57;;;16.60;99.90;;;;;;5038278;28;20927;-68
2023/09/16 00:29:00;;;;;;;5.80;2.77;;;16.50;99.90;;;;;;5038705;28;20275;-68
2023/09/16 00:31:25;;;;;;;3.07;2.73;;;16.50;99.90;;;;;;5038435;28;20937;-69
2023/09/16 00:33:51;;;;;;;7.07;3.37;;;16.50;99.90;;;;;;5035039;28;20214;-69
2023/09/16 00:36:16;;;;;;;3.50;3.07;;;16.40;99.90;;;;;;5036473;28;20199;-69
2023/09/16 00:38:42;;;;;;;2.93;2.70;;;16.60;99.90;;;;;;5036960;28;20203;-70
2023/09/16 00:41:08;;;;;;;5.50;2.50;;;16.70;99.90;;;;;;5036787;28;20245;-66
2023/09/16 00:43:34;;;;;;;7.40;2.90;;;16.60;99.90;;;;;;5037548;28;20233;-66
2023/09/16 00:45:59;;;;;;;2.80;2.57;;;16.50;99.90;;;;;;5036929;28;20233;-66
2023/09/16 00:48:25;;;;;;;2.80;2.60;;;16.50;99.90;;;;;;5038412;28;20230;-66
2023/09/16 00:50:51;;;;;;;3.63;2.57;;;16.50;99.90;;;;;;5036156;28;20231;-65
2023/09/16 00:53:17;;;;;;;3.63;3.00;;;16.50;99.90;;;;;;5033352;28;20234;-65
2023/09/16 00:55:46;;;;;;;2.50;2.30;;;16.40;99.90;;;;;;5032441;28;20215;-64
2023/09/16 00:58:12;;;;;;;2.57;2.20;;;16.40;99.90;;;;;;5036715;28;20225;-64
2023/09/16 01:00:37;;;;;;;3.97;2.70;;;16.50;99.90;;;;;;5016818;28;20934;-64
2023/09/16 01:03:04;;;;;;;4.73;3.00;;;16.60;99.90;;;;;;5042343;28;20200;-65
2023/09/16 01:05:30;;;;;;;4.63;3.23;;;16.60;99.90;;;;;;5037588;28;20197;-65
2023/09/16 01:07:57;;;;;;;2.70;2.47;;;16.60;99.90;;;;;;5032042;28;20194;-65
2023/09/16 01:10:23;;;;;;;3.27;2.50;;;16.30;99.90;;;;;;5038137;28;20211;-64
2023/09/16 01:12:54;;;;;;;4.67;3.10;;;16.20;99.90;;;;;;5037703;28;20216;-64
2023/09/16 01:15:22;;;;;;;3.73;2.60;;;16.10;99.90;;;;;;5035629;28;20199;-63
2023/09/16 01:18:07;;;;;;;3.87;2.87;;;16.20;99.90;;;;;;5034605;28;20740;-65
2023/09/16 01:20:32;;;;;;;3.30;2.90;;;16.20;99.90;;;;;;5039937;28;20281;-65
2023/09/16 01:22:58;;;;;;;4.00;2.50;;;16.10;99.90;;;;;;5037276;28;21185;-65
2023/09/16 01:25:28;;;;;;;5.67;2.77;;;16.10;99.90;;;;;;5034768;28;20220;-65
2023/09/16 01:27:54;;;;;;;3.10;2.80;;;16.10;99.90;;;;;;5037315;28;20255;-65
2023/09/16 01:30:20;;;;;;;3.23;2.57;;;15.90;99.90;;;;;;5018965;28;20223;-66
2023/09/16 01:33:03;;;;;;;3.63;3.10;;;15.90;99.90;;;;;;5037756;28;20247;-61
2023/09/16 01:35:32;;;;;;;3.37;3.07;;;15.80;99.90;;;;;;5034963;28;20226;-76
2023/09/16 01:37:59;;;;;;;7.50;3.03;;;15.80;99.90;;;;;;5032015;28;20198;-63
2023/09/16 01:40:27;;;;;;;3.97;3.23;;;15.80;99.90;;;;;;5037349;28;20206;-63
2023/09/16 01:42:53;;;;;;;3.93;2.67;;;15.80;99.90;;;;;;5033793;28;20677;-64
2023/09/16 01:45:19;;;;;;;3.13;2.83;;;15.70;99.90;;;;;;5016283;28;20225;-68
2023/09/16 01:47:45;;;;;;;5.03;3.40;;;15.70;99.90;;;;;;5032364;28;20249;-66
2023/09/16 01:50:11;;;;;;;2.97;2.63;;;15.90;99.90;;;;;;5032899;28;20210;-65
2023/09/16 01:52:36;;;;;;;4.27;3.00;;;15.80;99.90;;;;;;5031169;28;20250;-66
2023/09/16 01:55:02;;;;;;;4.83;2.70;;;16.00;99.90;;;;;;5036001;28;20260;-66
2023/09/16 01:57:27;;;;;;;4.10;3.00;;;15.80;99.90;;;;;;5030950;28;20707;-66
2023/09/16 01:59:53;;;;;;;3.53;2.67;;;15.80;99.90;;;;;;5014576;28;20203;-63
2023/09/16 02:02:19;;;;;;;3.13;2.57;;;15.90;99.90;;;;;;5035151;28;20186;-62
2023/09/16 02:04:44;;;;;;;3.27;2.97;;;16.00;99.90;;;;;;5033064;28;20199;-69
2023/09/16 02:07:10;;;;;;;3.47;2.87;;;16.00;99.90;;;;;;5023869;28;20202;-69
2023/09/16 02:09:36;;;;;;;4.00;2.70;;;15.90;99.90;;;;;;5016779;28;20293;-69
2023/09/16 02:12:02;;;;;;;3.00;2.40;;;15.90;99.90;;;;;;5020213;28;20360;-69
2023/09/16 02:14:27;;;;;;;3.40;2.97;;;15.90;99.90;;;;;;5017072;28;20290;-62
2023/09/16 02:16:52;;;;;;;5.90;3.10;;;15.90;99.90;;;;;;5023307;28;20202;-69
2023/09/16 02:19:18;;;;;;;3.03;2.70;;;15.90;99.90;;;;;;5034517;28;20206;-68
2023/09/16 02:21:43;;;;;;;4.70;2.50;;;16.00;99.90;;;;;;5041493;28;20951;-68
2023/09/16 02:24:09;;;;;;;7.83;5.10;;;16.10;99.90;;;;;;5033919;28;20305;-67
2023/09/16 02:26:35;;;;;;;7.63;2.60;;;15.90;99.90;;;;;;5028062;28;20204;-69
2023/09/16 02:29:00;;;;;;;4.23;3.23;;;15.90;99.90;;;;;;5036957;28;20226;-68
2023/09/16 02:31:26;;;;;;;4.77;3.20;;;15.90;99.90;;;;;;5037434;28;20217;-67
2023/09/16 02:33:58;;;;;;;3.30;3.00;;;15.90;99.90;;;;;;5021104;28;20263;-66
2023/09/16 02:36:24;;;;;;;4.57;4.17;;;15.90;99.90;;;;;;5034707;28;20198;-67
2023/09/16 02:38:51;;;;;;;4.63;3.27;;;15.90;99.90;;;;;;5039844;28;20209;-62
2023/09/16 02:41:17;;;;;;;4.73;2.50;;;16.00;99.90;;;;;;5033781;28;20199;-62
2023/09/16 02:43:44;;;;;;;4.20;3.20;;;15.80;99.90;;;;;;5030773;28;20963;-62
2023/09/16 02:46:09;;;;;;;3.93;3.50;;;15.90;99.90;;;;;;5020383;28;20567;-62
2023/09/16 02:48:35;;;;;;;3.67;2.63;;;15.70;99.90;;;;;;5042402;28;20260;-62
2023/09/16 02:51:01;;;;;;;4.03;2.73;;;15.80;99.90;;;;;;5017778;28;20214;-62
2023/09/16 02:53:27;;;;;;;5.77;3.63;;;15.80;99.90;;;;;;5016429;28;20237;-62
2023/09/16 02:55:54;;;;;;;4.53;2.83;;;15.70;99.90;;;;;;5038334;28;20844;-63
2023/09/16 02:58:20;;;;;;;3.37;3.07;;;15.50;99.90;;;;;;5040232;28;20190;-63
2023/09/16 03:00:47;;;;;;;3.07;2.70;;;15.50;99.90;;;;;;5037111;28;20222;-63
2023/09/16 03:03:12;;;;;;;3.33;2.50;;;15.50;99.90;;;;;;5017056;28;20651;-63
2023/09/16 03:05:40;;;;;;;7.23;3.87;;;15.30;99.90;;;;;;5041982;28;20249;-63
2023/09/16 03:08:06;;;;;;;4.17;3.03;;;15.40;99.90;;;;;;5033861;28;20196;-64
2023/09/16 03:10:33;;;;;;;7.17;3.50;;;15.30;99.90;;;;;;5034585;28;20276;-63
2023/09/16 03:12:59;;;;;;;11.47;3.30;;;15.30;99.90;;;;;;5039971;28;20581;-64
2023/09/16 03:15:24;;;;;;;4.30;3.27;;;15.20;99.90;;;;;;5033531;28;20207;-66
2023/09/16 03:17:50;;;;;;;4.77;3.47;;;15.10;99.90;;;;;;5036182;28;20218;-67
2023/09/16 03:20:15;;;;;;;3.27;2.57;;;15.20;99.90;;;;;;5014140;28;20193;-69
2023/09/16 03:22:41;;;;;;;3.70;2.70;;;15.30;99.90;;;;;;5030259;28;20617;-70
2023/09/16 03:25:06;;;;;;;5.63;3.23;;;15.30;99.90;;;;;;5035904;28;20195;-70
2023/09/16 03:27:32;;;;;;;6.23;2.50;;;15.20;99.90;;;;;;5009409;28;20196;-70
2023/09/16 03:29:58;;;;;;;3.67;2.87;;;15.30;99.90;;;;;;5032147;28;20231;-70
2023/09/16 03:32:27;;;;;;;5.20;3.10;;;15.50;99.90;;;;;;5034200;28;20203;-70
2023/09/16 03:34:52;;;;;;;5.83;3.60;;;15.40;99.90;;;;;;5040617;28;20506;-71
2023/09/16 03:37:18;;;;;;;4.10;3.00;;;15.50;99.90;;;;;;5032632;28;20677;-70
2023/09/16 03:39:43;;;;;;;3.07;2.77;;;15.40;99.90;;;;;;5034568;28;20213;-70
2023/09/16 03:42:09;;;;;;;2.93;2.57;;;15.40;99.90;;;;;;5033406;28;20199;-70
2023/09/16 03:44:34;;;;;;;4.50;3.60;;;15.40;99.90;;;;;;5014742;28;20661;-69
2023/09/16 03:47:00;;;;;;;3.00;2.67;;;15.30;99.90;;;;;;5030194;28;20203;-70
2023/09/16 03:49:25;;;;;;;3.53;3.00;;;15.40;99.90;;;;;;5034603;28;20194;-69
2023/09/16 03:51:51;;;;;;;5.63;2.60;;;15.60;99.90;;;;;;5038943;28;20293;-70
2023/09/16 03:54:16;;;;;;;4.07;2.90;;;15.60;99.90;;;;;;5040948;28;20248;-69
2023/09/16 03:56:42;;;;;;;4.93;2.83;;;15.60;99.90;;;;;;5036427;28;20694;-69
2023/09/16 03:59:07;;;;;;;5.00;3.23;;;15.40;99.90;;;;;;5034266;28;20584;-69
2023/09/16 04:01:33;;;;;;;3.40;3.07;;;15.30;99.90;;;;;;5029464;28;20253;-69
2023/09/16 04:03:58;;;;;;;4.30;3.03;;;15.30;99.90;;;;;;5034482;28;20213;-70
2023/09/16 04:06:24;;;;;;;3.33;2.50;;;15.30;99.90;;;;;;5029875;28;20206;-66
2023/09/16 04:08:49;;;;;;;2.93;2.70;;;15.30;99.90;;;;;;5030542;28;20203;-67
2023/09/16 04:11:15;;;;;;;4.20;2.97;;;15.50;99.90;;;;;;5041504;28;20263;-67
2023/09/16 04:13:40;;;;;;;3.87;3.27;;;15.20;99.90;;;;;;5032271;28;20203;-68
2023/09/16 04:16:06;;;;;;;5.07;3.07;;;15.10;99.90;;;;;;5039180;28;20202;-68
2023/09/16 04:18:32;;;;;;;4.33;3.17;;;15.00;99.90;;;;;;5032832;28;20195;-71
2023/09/16 04:20:57;;;;;;;3.37;3.07;;;15.10;99.90;;;;;;5034021;28;20835;-69
2023/09/16 04:23:23;;;;;;;3.30;2.83;;;15.20;99.90;;;;;;5041865;28;20202;-81
2023/09/16 04:25:56;;;;;;;4.87;3.63;;;15.00;99.90;;;;;;5033211;28;20195;-64
2023/09/16 04:28:23;;;;;;;5.37;3.60;;;14.90;99.90;;;;;;5035803;28;20202;-63
2023/09/16 04:30:52;;;;;;;3.50;3.10;;;14.70;99.90;;;;;;5035518;28;20214;-62
2023/09/16 04:33:19;;;;;;;4.20;2.77;;;14.80;99.90;;;;;;5036083;28;20201;-62
2023/09/16 04:35:46;;;;;;;3.90;3.30;;;14.70;99.90;;;;;;5033168;28;20608;-66
2023/09/16 04:38:12;;;;;;;6.37;3.17;;;14.80;99.90;;;;;;5019778;28;20279;-63
2023/09/16 04:40:38;;;;;;;4.67;2.97;;;14.80;99.90;;;;;;5024665;28;20195;-67
2023/09/16 04:43:04;;;;;;;5.60;3.00;;;14.90;99.90;;;;;;5021131;28;20206;-66
2023/09/16 04:45:31;;;;;;;4.77;3.17;;;14.90;99.90;;;;;;5029456;28;20229;-66
2023/09/16 04:47:57;;;;;;;4.70;3.27;;;14.70;99.90;;;;;;5038530;28;20325;-67
2023/09/16 04:50:23;;;;;;;3.47;3.17;;;14.70;99.90;;;;;;5038323;28;20215;-67
2023/09/16 04:52:48;;;;;;;5.43;3.33;;;14.80;99.90;;;;;;5021585;28;21087;-67
2023/09/16 04:55:14;;;;;;;5.17;2.87;;;14.90;99.90;;;;;;5015722;28;20199;-67
2023/09/16 04:57:40;;;;;;;3.40;3.10;;;15.00;99.90;;;;;;5038688;28;20891;-69
2023/09/16 05:00:06;;;;;;;5.10;3.67;;;15.10;99.90;;;;;;5038233;28;20291;-64
2023/09/16 05:02:33;;;;;;;3.80;2.77;;;15.20;99.90;;;;;;5038214;28;20204;-65
2023/09/16 05:05:00;;;;;;;5.13;4.00;;;15.00;99.90;;;;;;5020723;28;20201;-64
2023/09/16 05:07:27;;;;;;;4.60;3.37;;;15.10;99.90;;;;;;5039645;28;20186;-63
2023/09/16 05:09:52;;;;;;;4.40;3.33;;;15.10;99.90;;;;;;5037972;28;20214;-63
2023/09/16 05:12:20;;;;;;;7.33;3.10;;;15.10;99.90;;;;;;5035588;28;20225;-64
2023/09/16 05:14:46;;;;;;;4.77;3.00;;;15.10;99.90;;;;;;5037015;28;20205;-64
2023/09/16 05:17:12;;;;;;;6.83;3.10;;;15.10;99.90;;;;;;5035695;28;20219;-63
2023/09/16 05:19:37;;;;;;;4.33;3.03;;;14.90;99.90;;;;;;5038111;28;20850;-64
2023/09/16 05:22:04;;;;;;;5.07;3.47;;;14.90;99.90;;;;;;5042445;28;20203;-64
2023/09/16 05:24:32;;;;;;;4.40;3.57;;;14.90;99.90;;;;;;5037667;28;20187;-65
2023/09/16 05:26:58;;;;;;;8.17;3.60;;;14.90;99.90;;;;;;5040613;28;20837;-64
2023/09/16 05:29:24;;;;;;;4.80;3.03;;;14.90;99.90;;;;;;5034267;28;20738;-64
2023/09/16 05:31:50;;;;;;;4.00;2.87;;;14.90;99.90;;;;;;5042161;28;20294;-64
2023/09/16 05:34:15;;;;;;;5.20;4.00;;;14.80;99.90;;;;;;5039096;28;20377;-64
2023/09/16 05:36:41;;;;;;;3.33;2.97;;;14.90;99.90;;;;;;5035610;28;20708;-64
2023/09/16 05:39:06;;;;;;;3.40;3.10;;;14.80;99.90;;;;;;5037493;28;20293;-64
2023/09/16 05:41:32;;;;;;;7.30;3.47;;;14.80;99.90;;;;;;5020910;28;20207;-64
2023/09/16 05:43:58;;;;;;;5.43;4.00;;;14.70;99.90;;;;;;5017225;28;20692;-63
2023/09/16 05:46:23;;;;;;;4.97;3.70;;;14.60;99.90;;;;;;5036936;28;20608;-63
2023/09/16 05:48:49;;;;;;;7.60;3.80;;;14.70;99.90;;;;;;5033176;28;20215;-64
2023/09/16 05:51:15;;;;;;;6.33;3.67;;;14.90;99.90;;;;;;5037225;28;20284;-63
2023/09/16 05:53:42;;;;;;;4.50;3.10;;;15.00;99.90;;;;;;5037161;28;20199;-63
2023/09/16 05:56:08;;;;;;;4.70;3.13;;;15.10;99.90;;;;;;5038778;28;20194;-65
2023/09/16 05:58:34;;;;;;;5.03;3.73;;;15.10;99.90;;;;;;5034618;28;20868;-65
2023/09/16 06:01:00;;;;;;;7.67;3.83;;;15.20;99.90;;;;;;5041371;28;20260;-65
2023/09/16 06:03:26;;;;;;;3.07;2.77;;;15.10;99.90;;;;;;5037555;28;20203;-64
2023/09/16 06:06:00;;;;;;;4.77;3.40;;;15.10;99.90;;;;;;5034442;28;20203;-65
2023/09/16 06:08:26;;;;;;;4.10;3.17;;;15.20;99.90;;;;;;5037521;28;20300;-66
2023/09/16 06:10:51;;;;;;;7.03;3.60;;;15.00;99.90;;;;;;5036570;28;20743;-64
2023/09/16 06:13:17;;;;;;;6.13;3.60;;;15.10;99.90;;;;;;5041890;28;20269;-64
2023/09/16 06:15:45;;;;;;;6.80;3.37;;;15.00;99.90;;;;;;5041712;28;20198;-64
2023/09/16 06:18:11;;;;;;;6.57;3.47;;;15.10;99.90;;;;;;5036744;28;20199;-65
2023/09/16 06:20:38;;;;;;;5.80;4.10;;;15.10;99.90;;;;;;5038044;28;21002;-65
2023/09/16 06:23:04;;;;;;;6.17;4.13;;;15.10;99.90;;;;;;5038316;28;20198;-64
2023/09/16 06:25:30;;;;;;;4.50;3.60;;;15.20;99.90;;;;;;5032105;28;20194;-63
2023/09/16 06:27:58;;;;;;;4.90;3.73;;;15.30;99.90;;;;;;5032616;28;20278;-63
2023/09/16 06:30:24;;;;;;;4.93;3.40;;;15.40;99.90;;;;;;5015241;28;20289;-63
2023/09/16 06:32:49;;;;;;;5.70;3.20;;;15.40;99.90;;;;;;5041117;28;20326;-62
2023/09/16 06:35:14;;;;;;;6.00;3.80;;;15.20;99.90;;;;;;5036922;28;20202;-62
2023/09/16 06:37:40;;;;;;;5.23;3.40;;;15.30;99.90;;;;;;5032616;28;20696;-63
2023/09/16 06:40:06;;;;;;;5.70;4.37;;;15.10;99.90;;;;;;5038167;28;20202;-62
2023/09/16 06:42:31;;;;;;;6.67;3.23;;;15.00;99.90;;;;;;5035820;28;20202;-61
2023/09/16 06:44:57;;;;;;;5.40;4.13;;;15.10;99.90;;;;;;5032108;28;20207;-62
2023/09/16 06:47:29;;;;;;;8.97;3.73;;;15.20;99.90;;;;;;5015052;28;20251;-61
2023/09/16 06:49:56;;;;;;;3.97;3.37;;;15.30;99.90;;;;;;5015409;28;20338;-62
2023/09/16 06:52:22;;;;;;;6.10;3.50;;;15.10;99.90;;;;;;5019740;28;20199;-61
2023/09/16 06:54:48;;;;;;;6.10;4.23;;;15.20;99.90;;;;;;5008870;28;20291;-61
2023/09/16 06:57:14;;;;;;;3.97;3.23;;;15.30;99.90;;;;;;5014913;28;20199;-60
2023/09/16 06:59:40;;;;;;;8.50;4.17;;;15.50;99.90;;;;;;5013085;28;20218;-62
2023/09/16 07:02:05;;;;;;;6.20;3.80;;;15.50;99.90;;;;;;5019636;28;20198;-61
2023/09/16 07:04:31;;;;;;;8.53;4.30;;;15.40;99.90;;;;;;5018187;28;20207;-61
2023/09/16 07:06:56;;;;;;;5.70;4.13;;;15.50;99.90;;;;;;5012318;28;20203;-62
2023/09/16 07:09:22;;;;;;;5.17;4.20;;;15.50;99.90;;;;;;5019345;28;20195;-62
2023/09/16 07:11:48;;;;;;;7.17;4.43;;;15.50;99.90;;;;;;5011368;28;20839;-62
2023/09/16 07:14:13;;;;;;;8.27;4.23;;;15.70;99.90;;;;;;5015189;28;20279;-61
2023/09/16 07:16:40;;;;;;;6.00;3.83;;;15.90;99.90;;;;;;5019592;28;20313;-62
2023/09/16 07:19:09;;;;;;;5.40;3.80;;;15.90;99.90;;;;;;5013582;28;20191;-63
2023/09/16 07:21:34;;;;;;;4.10;3.70;;;15.90;99.90;;;;;;5015804;28;20314;-67
2023/09/16 07:24:02;;;;;;;6.50;4.10;;;15.90;99.90;;;;;;5012070;28;20269;-69
2023/09/16 07:26:29;;;;;;;8.13;4.37;;;16.00;99.90;;;;;;5020057;28;20291;-67
2023/09/16 07:28:55;;;;;;;4.47;4.07;;;16.10;99.90;;;;;;5017248;28;20202;-67
2023/09/16 07:31:20;;;;;;;8.53;3.87;;;16.10;99.90;;;;;;5010479;28;20228;-67
2023/09/16 07:33:46;;;;;;;6.10;3.53;;;16.10;99.90;;;;;;5019438;28;20199;-66
2023/09/16 07:36:11;;;;;;;6.33;4.00;;;16.20;99.90;;;;;;5020579;28;20230;-66
2023/09/16 07:38:37;;;;;;;6.50;3.90;;;16.40;99.90;;;;;;5009081;28;20193;-64
2023/09/16 07:41:02;;;;;;;4.93;3.33;;;16.50;99.90;;;;;;5014402;28;20223;-67
2023/09/16 07:43:28;;;;;;;6.03;3.97;;;16.50;99.90;;;;;;5014131;28;20237;-66
2023/09/16 07:45:53;;;;;;;6.67;4.03;;;16.70;99.90;;;;;;5008453;28;20198;-67
2023/09/16 07:48:19;;;;;;;5.07;4.57;;;16.70;99.90;;;;;;5025364;28;20707;-66
2023/09/16 07:50:45;;;;;;;6.43;4.50;;;16.80;99.90;;;;;;5033198;28;20772;-66
2023/09/16 07:53:11;;;;;;;5.07;3.83;;;16.90;99.90;;;;;;5016449;28;20248;-67
2023/09/16 07:55:38;;;;;;;4.87;3.90;;;16.90;99.90;;;;;;5033070;28;20190;-69
2023/09/16 07:58:04;;;;;;;4.83;3.83;;;17.10;99.90;;;;;;5018023;28;20528;-69
2023/09/16 08:00:29;;;;;;;5.80;3.40;;;17.20;99.90;;;;;;5033653;28;20713;-69
2023/09/16 08:02:55;;;;;;;5.50;3.93;;;17.30;99.90;;;;;;5020925;28;20244;-69
2023/09/16 08:05:21;;;;;;;4.60;3.53;;;17.30;99.90;;;;;;5042452;28;20198;-64
2023/09/16 08:07:47;;;;;;;6.00;4.00;;;17.40;99.90;;;;;;5031882;28;20699;-65
2023/09/16 08:10:12;;;;;;;7.77;3.73;;;17.50;99.90;;;;;;5042970;28;20639;-65
2023/09/16 08:12:38;;;;;;;4.57;3.83;;;17.70;99.90;;;;;;5018884;28;20283;-70
2023/09/16 08:15:06;;;;;;;5.30;4.10;;;17.60;99.90;;;;;;5021749;28;20290;-69
2023/09/16 08:17:32;;;;;;;6.40;3.43;;;17.60;99.90;;;;;;5031073;28;20208;-67
2023/09/16 08:19:58;;;;;;;6.43;3.23;;;17.70;99.90;;;;;;5020218;28;20195;-62
2023/09/16 08:22:23;;;;;;;4.93;3.63;;;17.90;99.90;;;;;;5040269;28;20202;-63
2023/09/16 08:24:49;;;;;;;6.03;3.53;;;18.00;99.90;;;;;;5037881;28;20868;-62
2023/09/16 08:27:15;;;;;;;6.30;3.97;;;18.00;99.90;;;;;;5035307;28;20213;-62
2023/09/16 08:29:40;;;;;;;5.07;3.73;;;18.10;99.90;;;;;;5035407;28;20203;-62
2023/09/16 08:32:05;;;;;;;3.87;3.30;;;18.20;99.90;;;;;;5018279;28;20291;-62
2023/09/16 08:34:31;;;;;;;6.07;3.33;;;18.20;99.90;;;;;;5034801;28;20217;-62
2023/09/16 08:36:56;;;;;;;5.43;3.40;;;18.30;99.90;;;;;;5038159;28;20217;-66
2023/09/16 08:39:22;;;;;;;5.57;4.73;;;18.20;99.90;;;;;;5042518;28;20948;-65
2023/09/16 08:41:56;;;;;;;7.07;3.50;;;18.00;99.90;;;;;;5038216;28;20214;-64
2023/09/16 08:44:23;;;;;;;8.17;3.63;;;17.90;99.90;;;;;;5011457;28;20202;-64
2023/09/16 08:46:59;;;;;;;5.97;4.50;;;17.90;99.90;;;;;;5038824;28;20679;-62
2023/09/16 08:49:28;;;;;;;4.23;3.57;;;17.90;99.90;;;;;;5017908;28;20206;-64
2023/09/16 08:51:58;;;;;;;4.17;3.40;;;17.90;99.90;;;;;;5030652;28;20229;-65
2023/09/16 08:54:24;;;;;;;3.83;3.37;;;17.90;99.90;;;;;;5043177;28;20214;-67
2023/09/16 08:56:49;;;;;;;5.07;3.50;;;17.80;99.90;;;;;;5033046;28;21415;-61
2023/09/16 08:59:15;;;;;;;5.43;3.77;;;17.80;99.90;;;;;;5037359;28;20210;-65
2023/09/16 09:01:44;;;;;;;5.23;3.63;;;18.00;99.90;;;;;;5034908;28;20294;-65
2023/09/16 09:04:10;;;;;;;4.90;3.73;;;18.10;99.90;;;;;;5037665;28;20200;-63
2023/09/16 09:06:37;;;;;;;4.67;2.90;;;18.20;99.90;;;;;;5033409;28;20224;-66
2023/09/16 09:09:03;;;;;;;4.23;3.20;;;18.20;99.90;;;;;;5036714;28;20202;-65
2023/09/16 09:11:31;;;;;;;3.47;3.13;;;18.20;99.90;;;;;;5039442;28;20577;-67
2023/09/16 09:13:58;;;;;;;3.50;3.20;;;18.30;99.90;;;;;;5038135;28;20291;-66
2023/09/16 09:16:25;;;;;;;4.07;3.57;;;18.30;99.90;;;;;;5048311;28;21127;-65
2023/09/16 09:18:55;;;;;;;6.30;3.30;;;18.40;99.90;;;;;;5036024;28;20687;-62
2023/09/16 09:21:20;;;;;;;4.30;3.33;;;18.50;99.90;;;;;;5038573;28;20598;-65
2023/09/16 09:23:46;;;;;;;5.00;3.90;;;18.60;99.90;;;;;;5040498;28;20206;-65
2023/09/16 09:26:11;;;;;;;5.53;4.03;;;18.50;99.90;;;;;;5025994;28;20200;-64
2023/09/16 09:28:37;;;;;;;5.33;4.50;;;18.70;99.90;;;;;;5035538;28;20197;-62
2023/09/16 09:31:02;;;;;;;6.47;4.47;;;18.70;99.90;;;;;;5039210;28;20230;-61
2023/09/16 09:33:28;;;;;;;5.93;3.57;;;18.70;99.90;;;;;;5040789;28;20822;-61
2023/09/16 09:36:17;;;;;;;4.00;3.70;;;18.80;99.90;;;;;;5038871;28;20756;-62
2023/09/16 09:38:43;;;;;;;6.97;3.93;;;19.10;99.90;;;;;;5036577;28;20667;-61
2023/09/16 09:41:09;;;;;;;4.93;3.10;;;19.10;99.90;;;;;;5039971;28;20244;-61
2023/09/16 09:43:35;;;;;;;5.10;4.43;;;19.00;99.90;;;;;;5037329;28;20531;-61
2023/09/16 09:46:02;;;;;;;8.27;3.37;;;19.10;99.90;;;;;;5021040;28;20668;-65
2023/09/16 09:48:29;;;;;;;3.33;3.03;;;19.10;99.90;;;;;;5033695;28;20223;-65
2023/09/16 09:50:54;;;;;;;3.97;3.60;;;19.00;99.90;;;;;;5040683;28;20248;-67
2023/09/16 09:53:22;;;;;;;5.97;4.37;;;18.80;99.90;;;;;;5018063;28;20340;-65
2023/09/16 09:55:49;;;;;;;4.53;3.13;;;18.80;99.90;;;;;;5022916;28;20685;-60
2023/09/16 09:58:14;;;;;;;5.07;3.57;;;19.00;99.90;;;;;;5023074;28;20206;-61
2023/09/16 10:00:50;;;;;;;4.93;4.00;;;19.20;99.90;;;;;;5037180;28;20291;-61
2023/09/16 10:03:21;;;;;;;4.90;3.23;;;19.40;99.90;;;;;;5032506;28;20202;-61
2023/09/16 10:05:47;;;;;;;4.23;3.83;;;19.70;99.90;;;;;;5034196;28;20209;-60
2023/09/16 10:08:13;;;;;;;4.63;3.23;;;19.80;99.90;;;;;;5037590;28;20206;-60
2023/09/16 10:10:40;;;;;;;4.10;3.47;;;20.00;99.90;;;;;;5035724;28;20208;-61
2023/09/16 10:13:07;;;;;;;3.73;2.87;;;20.00;99.90;;;;;;5038349;28;20213;-60
2023/09/16 10:15:36;;;;;;;3.93;2.93;;;20.10;99.90;;;;;;5036072;28;20192;-60
2023/09/16 10:18:02;;;;;;;3.57;3.27;;;20.10;99.90;;;;;;5040906;28;20192;-61
2023/09/16 10:20:33;;;;;;;3.37;2.70;;;20.10;99.90;;;;;;5044260;28;20186;-60
2023/09/16 10:22:59;;;;;;;4.77;3.40;;;20.40;99.90;;;;;;5038821;28;20208;-60
2023/09/16 10:25:28;;;;;;;3.87;3.57;;;20.30;99.90;;;;;;5017072;28;20201;-60
2023/09/16 10:28:03;;;;;;;5.00;3.70;;;20.20;99.90;;;;;;5029710;28;20203;-61
2023/09/16 10:30:32;;;;;;;4.13;3.40;;;20.40;99.90;;;;;;5035807;28;20676;-60
2023/09/16 10:33:06;;;;;;;4.23;3.83;;;20.60;99.90;;;;;;5014444;28;20954;-60
2023/09/16 10:35:37;;;;;;;3.70;3.40;;;20.80;99.90;;;;;;5031366;28;20886;-60
2023/09/16 10:38:04;;;;;;;5.27;3.43;;;20.90;99.90;;;;;;5032868;28;20203;-60
2023/09/16 10:40:31;;;;;;;4.40;3.53;;;21.20;99.90;;;;;;5040227;28;20190;-60
2023/09/16 10:42:58;;;;;;;3.87;3.23;;;21.30;99.90;;;;;;5035805;28;20191;-60
2023/09/16 10:45:26;;;;;;;3.27;3.00;;;21.50;99.90;;;;;;5027719;28;20244;-61
2023/09/16 10:47:53;;;;;;;3.63;3.33;;;21.70;99.90;;;;;;5035953;28;20241;-61
2023/09/16 10:50:24;;;;;;;6.80;3.47;;;21.90;99.90;;;;;;5038158;28;20211;-61
2023/09/16 10:53:11;;;;;;;5.13;3.50;;;22.10;99.90;;;;;;5014694;28;20195;-62
2023/09/16 10:56:13;;;;;;;4.77;4.30;;;22.20;99.90;;;;;;5038620;28;20219;-63
2023/09/16 10:58:54;;;;;;;4.50;4.10;;;22.40;99.90;;;;;;5038164;28;20553;-63
2023/09/16 11:01:36;;;;;;;5.57;3.50;;;22.50;99.90;;;;;;5034541;28;20230;-65
2023/09/16 11:04:14;;;;;;;5.93;3.53;;;22.50;99.90;;;;;;5037631;28;20199;-64
2023/09/16 11:06:40;;;;;;;6.43;4.25;;;22.90;99.90;;;;;;5040378;28;20203;-64
2023/09/16 11:09:06;;;;;;;4.63;3.60;;;23.20;99.90;;;;;;5033221;28;20206;-64
2023/09/16 11:11:33;;;;;;;3.47;3.20;;;23.20;99.90;;;;;;5032476;28;20227;-63
2023/09/16 11:13:59;;;;;;;5.65;3.88;;;23.20;99.90;;;;;;5033711;28;20206;-62
2023/09/16 11:16:25;;;;;;;3.92;3.60;;;23.20;99.90;;;;;;5032526;28;20194;-66
2023/09/16 11:18:55;;;;;;;5.93;3.78;;;23.30;99.90;;;;;;5014796;28;20198;-63
2023/09/16 11:21:21;;;;;;;4.78;3.30;;;23.00;99.90;;;;;;5032333;28;20202;-64
2023/09/16 11:23:48;;;;;;;3.70;3.28;;;22.90;99.90;;;;;;5031453;28;20198;-64
2023/09/16 11:26:22;;;;;;;4.53;3.42;;;23.20;99.90;;;;;;5034829;28;20283;-61
2023/09/16 11:28:51;;;;;;;4.22;3.72;;;23.50;99.90;;;;;;5033362;28;20222;-61
2023/09/16 11:31:16;;;;;;;4.13;3.78;;;23.90;99.50;;;;;;5031126;28;20219;-61
2023/09/16 11:33:42;;;;;;;3.67;3.38;;;24.00;99.30;;;;;;5033217;28;20194;-65
2023/09/16 11:36:18;;;;;;;6.85;3.03;;;23.90;99.10;;;;;;5035190;28;20197;-65
2023/09/16 11:38:55;;;;;;;4.40;3.90;;;23.70;99.90;;;;;;5048185;28;20263;-66
2023/09/16 11:41:20;;;;;;;3.75;3.45;;;23.70;99.90;;;;;;5041272;28;20228;-67
2023/09/16 11:43:46;;;;;;;5.28;3.65;;;24.20;99.80;;;;;;5042229;28;20275;-64
2023/09/16 11:46:12;;;;;;;3.85;3.38;;;24.10;99.10;;;;;;5039139;28;20952;-66
2023/09/16 11:48:48;;;;;;;5.95;4.05;;;24.20;99.10;;;;;;5039064;28;20909;-63
2023/09/16 11:51:16;;;;;;;4.00;3.65;;;24.40;99.00;;;;;;5034343;28;20788;-63
2023/09/16 11:53:41;;;;;;;4.85;3.67;;;24.20;99.50;;;;;;5048959;28;20200;-63
2023/09/16 11:56:07;;;;;;;3.63;3.33;;;24.30;99.50;;;;;;5039626;28;20261;-63
2023/09/16 11:58:33;;;;;;;4.05;3.70;;;24.50;98.50;;;;;;5039948;28;20206;-63
2023/09/16 12:00:59;;;;;;;3.92;3.63;;;24.70;98.40;;;;;;5033632;28;20206;-64
2023/09/16 12:03:25;;;;;;;3.60;3.08;;;24.70;98.60;;;;;;5041335;28;20213;-65
2023/09/16 12:05:51;;;;;;;4.30;3.67;;;24.40;98.50;;;;;;5036073;28;20200;-62
2023/09/16 12:08:18;;;;;;;3.85;3.53;;;24.70;99.00;;;;;;5043027;28;21013;-60
2023/09/16 12:10:43;;;;;;;3.88;3.58;;;25.00;98.20;;;;;;5042076;28;20212;-61
2023/09/16 12:13:09;;;;;;;4.50;3.70;;;25.10;97.50;;;;;;5034708;28;20214;-61
2023/09/16 12:15:35;;;;;;;3.92;3.63;;;25.20;96.80;;;;;;5045481;28;20201;-61
2023/09/16 12:18:01;;;;;;;3.83;3.53;;;25.20;97.60;;;;;;5039243;28;20423;-62
2023/09/16 12:20:31;;;;;;;4.45;3.88;;;25.10;98.40;;;;;;5024901;28;20704;-62
2023/09/16 12:22:58;;;;;;;4.35;3.67;;;25.00;97.20;;;;;;5043979;28;20213;-60
2023/09/16 12:25:26;;;;;;;3.60;3.30;;;25.00;96.90;;;;;;5022742;28;20204;-60
2023/09/16 12:27:52;;;;;;;4.15;3.75;;;24.90;97.10;;;;;;5041238;28;20203;-59
2023/09/16 12:30:17;;;;;;;3.80;3.50;;;25.60;95.80;;;;;;5041048;28;20222;-60
2023/09/16 12:32:50;;;;;;;3.95;3.45;;;25.40;95.60;;;;;;5041611;28;20616;-60
2023/09/16 12:35:16;;;;;;;5.15;3.50;;;25.30;96.50;;;;;;5037748;28;20224;-60
2023/09/16 12:37:41;;;;;;;5.70;3.70;;;25.60;96.50;;;;;;5040754;28;20202;-60
2023/09/16 12:40:08;;;;;;;3.83;3.53;;;25.70;95.50;;;;;;5043027;28;20205;-60
2023/09/16 12:42:34;;;;;;;5.78;3.58;;;25.50;95.90;;;;;;5042459;28;20706;-64
2023/09/16 12:45:00;;;;;;;4.30;3.90;;;25.80;95.90;;;;;;5033524;28;20633;-65
2023/09/16 12:47:26;;;;;;;4.45;4.05;;;25.90;95.10;;;;;;5021782;28;20719;-67